sensor_id;sensor_type;location;lat;lon;timestamp;temperature;humidity
14884;DHT22;7534;50.762;7.000;2022-09-30T00:00:29;7.90;99.90
14884;DHT22;7534;50.762;7.000;2022-09-30T00:02:54;7.90;99.90
14884;DHT22;7534;50.762;7.000;2022-09-30T00:05:21;7.80;99.90
14884;DHT22;7534;50.762;7.000;2022-09-30T00:07:46;7.70;99.90
14884;DHT22;7534;50.762;7.000;2022-09-30T00:10:12;7.70;99.90
14884;DHT22;7534;50.762;7.000;2022-09-30T00:12:39;7.70;99.90
14884;DHT22;7534;50.762;7.000;2022-09-30T00:15:05;7.60;99.90
14884;DHT22;7534;50.762;7.000;2022-09-30T00:17:31;7.70;99.90
14884;DHT22;7534;50.762;7.000;2022-09-30T00:19:57;7.60;99.90
14884;DHT22;7534;50.762;7.000;2022-09-30T00:22:22;7.60;99.90
14884;DHT22;7534;50.762;7.000;2022-09-30T00:24:48;7.50;99.90
14884;DHT22;7534;50.762;7.000;2022-09-30T00:27:15;7.50;99.90
14884;DHT22;7534;50.762;7.000;2022-09-30T00:29:43;7.50;99.90
14884;DHT22;7534;50.762;7.000;2022-09-30T00:32:09;7.50;99.90
14884;DHT22;7534;50.762;7.000;2022-09-30T00:34:35;7.40;99.90
14884;DHT22;7534;50.762;7.000;2022-09-30T00:37:01;7.40;99.90
14884;DHT22;7534;50.762;7.000;2022-09-30T00:39:28;7.40;99.90
14884;DHT22;7534;50.762;7.000;2022-09-30T00:42:01;7.30;99.90
14884;DHT22;7534;50.762;7.000;2022-09-30T00:44:55;7.40;99.90
14884;DHT22;7534;50.762;7.000;2022-09-30T00:50:28;7.40;99.90
14884;DHT22;7534;50.762;7.000;2022-09-30T00:53:21;7.40;99.90
14884;DHT22;7534;50.762;7.000;2022-09-30T00:58:35;7.30;99.90
14884;DHT22;7534;50.762;7.000;2022-09-30T01:01:05;7.20;99.90
14884;DHT22;7534;50.762;7.000;2022-09-30T01:03:38;7.10;99.90
14884;DHT22;7534;50.762;7.000;2022-09-30T01:06:07;7.10;99.90
14884;DHT22;7534;50.762;7.000;2022-09-30T01:08:36;7.10;99.90
14884;DHT22;7534;50.762;7.000;2022-09-30T01:11:03;7.00;99.90
14884;DHT22;7534;50.762;7.000;2022-09-30T01:13:31;7.00;99.90
14884;DHT22;7534;50.762;7.000;2022-09-30T01:18:51;6.90;99.90
14884;DHT22;7534;50.762;7.000;2022-09-30T01:27:39;6.80;99.90
14884;DHT22;7534;50.762;7.000;2022-09-30T01:30:21;6.90;99.90
14884;DHT22;7534;50.762;7.000;2022-09-30T01:36:17;6.80;99.90
14884;DHT22;7534;50.762;7.000;2022-09-30T01:41:43;6.70;99.90
14884;DHT22;7534;50.762;7.000;2022-09-30T02:33:56;6.60;99.90
14884;DHT22;7534;50.762;7.000;2022-09-30T02:36:50;6.70;99.90
14884;DHT22;7534;50.762;7.000;2022-09-30T02:42:36;6.50;99.90
14884;DHT22;7534;50.762;7.000;2022-09-30T02:45:11;6.30;99.90
14884;DHT22;7534;50.762;7.000;2022-09-30T03:04:07;6.30;99.90
14884;DHT22;7534;50.762;7.000;2022-09-30T03:06:36;6.30;99.90
14884;DHT22;7534;50.762;7.000;2022-09-30T03:09:06;6.20;99.90
14884;DHT22;7534;50.762;7.000;2022-09-30T03:11:35;6.10;99.90
14884;DHT22;7534;50.762;7.000;2022-09-30T03:17:24;6.10;99.90
14884;DHT22;7534;50.762;7.000;2022-09-30T03:28:22;5.90;99.90
14884;DHT22;7534;50.762;7.000;2022-09-30T03:37:22;5.80;99.90
14884;DHT22;7534;50.762;7.000;2022-09-30T03:40:07;5.80;99.90
14884;DHT22;7534;50.762;7.000;2022-09-30T03:42:56;5.70;99.90
14884;DHT22;7534;50.762;7.000;2022-09-30T03:48:49;5.70;99.90
14884;DHT22;7534;50.762;7.000;2022-09-30T03:51:19;5.60;99.90
14884;DHT22;7534;50.762;7.000;2022-09-30T03:53:46;5.60;99.90
14884;DHT22;7534;50.762;7.000;2022-09-30T03:56:12;5.60;99.90
14884;DHT22;7534;50.762;7.000;2022-09-30T03:58:42;5.50;99.90
14884;DHT22;7534;50.762;7.000;2022-09-30T04:01:16;5.50;99.90
14884;DHT22;7534;50.762;7.000;2022-09-30T04:03:50;5.50;99.90
14884;DHT22;7534;50.762;7.000;2022-09-30T04:06:21;5.50;99.90
14884;DHT22;7534;50.762;7.000;2022-09-30T04:08:49;5.50;99.90
14884;DHT22;7534;50.762;7.000;2022-09-30T04:11:15;5.50;99.90
14884;DHT22;7534;50.762;7.000;2022-09-30T04:13:42;5.40;99.90
14884;DHT22;7534;50.762;7.000;2022-09-30T04:16:08;5.40;99.90
14884;DHT22;7534;50.762;7.000;2022-09-30T04:18:35;5.30;99.90
14884;DHT22;7534;50.762;7.000;2022-09-30T04:21:07;5.30;99.90
14884;DHT22;7534;50.762;7.000;2022-09-30T04:23:35;5.30;99.90
14884;DHT22;7534;50.762;7.000;2022-09-30T04:26:02;5.30;99.90
14884;DHT22;7534;50.762;7.000;2022-09-30T04:28:30;5.80;99.90
14884;DHT22;7534;50.762;7.000;2022-09-30T04:31:01;5.30;99.90
14884;DHT22;7534;50.762;7.000;2022-09-30T04:33:28;5.30;99.90
14884;DHT22;7534;50.762;7.000;2022-09-30T04:35:55;5.10;99.90
14884;DHT22;7534;50.762;7.000;2022-09-30T04:38:22;5.20;99.90
14884;DHT22;7534;50.762;7.000;2022-09-30T04:40:52;5.30;99.90
14884;DHT22;7534;50.762;7.000;2022-09-30T04:43:20;5.40;99.90
14884;DHT22;7534;50.762;7.000;2022-09-30T04:45:48;5.30;99.90
14884;DHT22;7534;50.762;7.000;2022-09-30T04:48:15;5.40;99.90
14884;DHT22;7534;50.762;7.000;2022-09-30T04:50:41;5.30;99.90
14884;DHT22;7534;50.762;7.000;2022-09-30T04:53:08;5.50;99.90
14884;DHT22;7534;50.762;7.000;2022-09-30T04:55:37;5.30;99.90
14884;DHT22;7534;50.762;7.000;2022-09-30T04:58:02;5.50;99.90
14884;DHT22;7534;50.762;7.000;2022-09-30T05:00:29;5.30;99.90
14884;DHT22;7534;50.762;7.000;2022-09-30T05:02:54;5.30;99.90
14884;DHT22;7534;50.762;7.000;2022-09-30T05:05:20;5.20;99.90
14884;DHT22;7534;50.762;7.000;2022-09-30T05:07:46;5.10;99.90
14884;DHT22;7534;50.762;7.000;2022-09-30T05:10:12;5.20;99.90
14884;DHT22;7534;50.762;7.000;2022-09-30T05:12:38;5.20;99.90
14884;DHT22;7534;50.762;7.000;2022-09-30T05:15:08;5.30;99.90
14884;DHT22;7534;50.762;7.000;2022-09-30T05:17:35;5.40;99.90
14884;DHT22;7534;50.762;7.000;2022-09-30T05:20:01;5.30;99.90
14884;DHT22;7534;50.762;7.000;2022-09-30T05:22:28;5.30;99.90
14884;DHT22;7534;50.762;7.000;2022-09-30T05:24:54;5.30;99.90
14884;DHT22;7534;50.762;7.000;2022-09-30T05:27:22;5.30;99.90
14884;DHT22;7534;50.762;7.000;2022-09-30T05:29:48;5.10;99.90
14884;DHT22;7534;50.762;7.000;2022-09-30T05:32:14;5.20;99.90
14884;DHT22;7534;50.762;7.000;2022-09-30T05:34:40;5.20;99.90
14884;DHT22;7534;50.762;7.000;2022-09-30T05:37:07;5.20;99.90
14884;DHT22;7534;50.762;7.000;2022-09-30T05:39:35;5.30;99.90
14884;DHT22;7534;50.762;7.000;2022-09-30T05:42:01;5.20;99.90
14884;DHT22;7534;50.762;7.000;2022-09-30T05:44:26;5.30;99.90
14884;DHT22;7534;50.762;7.000;2022-09-30T05:46:52;5.10;99.90
14884;DHT22;7534;50.762;7.000;2022-09-30T05:49:18;5.10;99.90
14884;DHT22;7534;50.762;7.000;2022-09-30T05:51:43;5.00;99.90
14884;DHT22;7534;50.762;7.000;2022-09-30T05:54:10;5.30;99.90
14884;DHT22;7534;50.762;7.000;2022-09-30T05:56:36;5.40;99.90
14884;DHT22;7534;50.762;7.000;2022-09-30T05:59:06;5.10;99.90
14884;DHT22;7534;50.762;7.000;2022-09-30T06:01:32;5.40;99.90
14884;DHT22;7534;50.762;7.000;2022-09-30T06:03:58;5.40;99.90
14884;DHT22;7534;50.762;7.000;2022-09-30T06:06:24;5.40;99.90
14884;DHT22;7534;50.762;7.000;2022-09-30T06:08:50;5.50;99.90
14884;DHT22;7534;50.762;7.000;2022-09-30T06:11:20;5.70;99.90
14884;DHT22;7534;50.762;7.000;2022-09-30T06:13:50;5.90;99.90
14884;DHT22;7534;50.762;7.000;2022-09-30T06:16:17;6.10;99.90
14884;DHT22;7534;50.762;7.000;2022-09-30T06:18:44;6.20;99.90
14884;DHT22;7534;50.762;7.000;2022-09-30T06:21:12;6.40;99.90
14884;DHT22;7534;50.762;7.000;2022-09-30T06:23:40;6.40;99.90
14884;DHT22;7534;50.762;7.000;2022-09-30T06:26:07;6.60;99.90
14884;DHT22;7534;50.762;7.000;2022-09-30T06:28:36;7.00;99.90
14884;DHT22;7534;50.762;7.000;2022-09-30T06:31:03;8.00;99.90
14884;DHT22;7534;50.762;7.000;2022-09-30T06:33:29;9.10;99.90
14884;DHT22;7534;50.762;7.000;2022-09-30T06:35:56;10.50;99.90
14884;DHT22;7534;50.762;7.000;2022-09-30T06:38:22;11.90;99.90
14884;DHT22;7534;50.762;7.000;2022-09-30T06:40:49;13.40;99.90
14884;DHT22;7534;50.762;7.000;2022-09-30T06:43:16;14.60;99.90
14884;DHT22;7534;50.762;7.000;2022-09-30T06:45:45;15.70;99.90
14884;DHT22;7534;50.762;7.000;2022-09-30T06:48:27;16.00;99.90
14884;DHT22;7534;50.762;7.000;2022-09-30T06:50:58;15.50;98.00
14884;DHT22;7534;50.762;7.000;2022-09-30T06:53:27;14.90;95.40
14884;DHT22;7534;50.762;7.000;2022-09-30T06:55:57;14.30;97.10
14884;DHT22;7534;50.762;7.000;2022-09-30T06:58:23;14.30;97.80
14884;DHT22;7534;50.762;7.000;2022-09-30T07:00:57;14.90;99.80
14884;DHT22;7534;50.762;7.000;2022-09-30T07:03:27;15.90;96.90
14884;DHT22;7534;50.762;7.000;2022-09-30T07:05:56;16.90;93.50
14884;DHT22;7534;50.762;7.000;2022-09-30T07:08:23;17.30;94.70
14884;DHT22;7534;50.762;7.000;2022-09-30T07:10:57;17.40;93.30
14884;DHT22;7534;50.762;7.000;2022-09-30T07:13:23;16.80;93.10
14884;DHT22;7534;50.762;7.000;2022-09-30T07:15:49;16.70;93.50
14884;DHT22;7534;50.762;7.000;2022-09-30T07:18:22;17.20;92.20
14884;DHT22;7534;50.762;7.000;2022-09-30T07:20:54;17.50;91.90
14884;DHT22;7534;50.762;7.000;2022-09-30T07:23:23;18.30;91.50
14884;DHT22;7534;50.762;7.000;2022-09-30T07:25:59;20.10;91.00
14884;DHT22;7534;50.762;7.000;2022-09-30T07:28:30;21.70;84.00
14884;DHT22;7534;50.762;7.000;2022-09-30T07:31:00;21.90;81.60
14884;DHT22;7534;50.762;7.000;2022-09-30T07:33:32;22.20;79.00
14884;DHT22;7534;50.762;7.000;2022-09-30T07:35:59;23.00;75.30
14884;DHT22;7534;50.762;7.000;2022-09-30T07:38:29;23.70;79.00
14884;DHT22;7534;50.762;7.000;2022-09-30T07:41:00;24.00;72.00
14884;DHT22;7534;50.762;7.000;2022-09-30T07:43:31;24.40;70.50
14884;DHT22;7534;50.762;7.000;2022-09-30T07:46:09;24.80;68.50
14884;DHT22;7534;50.762;7.000;2022-09-30T07:48:38;25.20;64.90
14884;DHT22;7534;50.762;7.000;2022-09-30T07:51:15;25.90;68.30
14884;DHT22;7534;50.762;7.000;2022-09-30T07:53:51;26.60;50.80
14884;DHT22;7534;50.762;7.000;2022-09-30T07:56:20;27.00;49.60
14884;DHT22;7534;50.762;7.000;2022-09-30T07:58:46;26.90;47.50
14884;DHT22;7534;50.762;7.000;2022-09-30T08:01:13;26.90;48.10
14884;DHT22;7534;50.762;7.000;2022-09-30T08:03:41;26.90;46.70
14884;DHT22;7534;50.762;7.000;2022-09-30T08:06:14;27.90;46.70
14884;DHT22;7534;50.762;7.000;2022-09-30T08:08:43;28.00;49.90
14884;DHT22;7534;50.762;7.000;2022-09-30T08:11:11;27.40;50.80
14884;DHT22;7534;50.762;7.000;2022-09-30T08:13:38;26.60;48.90
14884;DHT22;7534;50.762;7.000;2022-09-30T08:16:05;25.90;48.10
14884;DHT22;7534;50.762;7.000;2022-09-30T08:18:31;25.60;49.30
14884;DHT22;7534;50.762;7.000;2022-09-30T08:21:05;25.00;50.60
14884;DHT22;7534;50.762;7.000;2022-09-30T08:23:32;25.90;49.90
14884;DHT22;7534;50.762;7.000;2022-09-30T08:26:05;24.40;50.10
14884;DHT22;7534;50.762;7.000;2022-09-30T08:28:32;25.10;50.60
14884;DHT22;7534;50.762;7.000;2022-09-30T08:31:07;25.80;49.90
14884;DHT22;7534;50.762;7.000;2022-09-30T13:34:12;19.60;65.60
14884;DHT22;7534;50.762;7.000;2022-09-30T13:39:50;20.10;61.70
14884;DHT22;7534;50.762;7.000;2022-09-30T13:42:24;20.20;62.10
14884;DHT22;7534;50.762;7.000;2022-09-30T13:48:13;20.30;60.60
14884;DHT22;7534;50.762;7.000;2022-09-30T13:50:56;20.70;59.50
14884;DHT22;7534;50.762;7.000;2022-09-30T13:53:34;20.60;57.20
14884;DHT22;7534;50.762;7.000;2022-09-30T13:56:16;21.00;57.30
14884;DHT22;7534;50.762;7.000;2022-09-30T13:59:26;21.50;56.70
14884;DHT22;7534;50.762;7.000;2022-09-30T14:14:16;21.90;54.30
14884;DHT22;7534;50.762;7.000;2022-09-30T14:17:30;21.70;55.80
14884;DHT22;7534;50.762;7.000;2022-09-30T14:23:31;21.90;51.60
14884;DHT22;7534;50.762;7.000;2022-09-30T14:26:14;21.40;51.80
14884;DHT22;7534;50.762;7.000;2022-09-30T14:29:21;21.10;51.80
14884;DHT22;7534;50.762;7.000;2022-09-30T14:32:10;20.90;53.40
14884;DHT22;7534;50.762;7.000;2022-09-30T14:34:38;20.90;53.20
14884;DHT22;7534;50.762;7.000;2022-09-30T14:37:05;21.20;59.40
14884;DHT22;7534;50.762;7.000;2022-09-30T14:39:41;21.30;58.80
14884;DHT22;7534;50.762;7.000;2022-09-30T14:42:10;21.30;53.00
14884;DHT22;7534;50.762;7.000;2022-09-30T14:44:42;21.20;53.10
14884;DHT22;7534;50.762;7.000;2022-09-30T14:47:11;21.20;55.40
14884;DHT22;7534;50.762;7.000;2022-09-30T14:49:40;21.20;52.10
14884;DHT22;7534;50.762;7.000;2022-09-30T14:52:33;21.20;50.80
14884;DHT22;7534;50.762;7.000;2022-09-30T14:55:00;21.00;51.40
14884;DHT22;7534;50.762;7.000;2022-09-30T14:57:28;20.90;52.10
14884;DHT22;7534;50.762;7.000;2022-09-30T15:00:23;20.90;54.50
14884;DHT22;7534;50.762;7.000;2022-09-30T15:03:17;21.00;54.60
14884;DHT22;7534;50.762;7.000;2022-09-30T15:05:43;21.00;54.10
14884;DHT22;7534;50.762;7.000;2022-09-30T15:08:19;20.80;58.30
14884;DHT22;7534;50.762;7.000;2022-09-30T15:10:56;20.80;58.80
14884;DHT22;7534;50.762;7.000;2022-09-30T15:13:33;20.70;56.30
14884;DHT22;7534;50.762;7.000;2022-09-30T15:16:27;20.50;55.90
14884;DHT22;7534;50.762;7.000;2022-09-30T15:18:59;20.50;56.60
14884;DHT22;7534;50.762;7.000;2022-09-30T15:21:33;20.60;55.20
14884;DHT22;7534;50.762;7.000;2022-09-30T15:24:03;20.50;54.20
14884;DHT22;7534;50.762;7.000;2022-09-30T15:26:31;20.30;54.30
14884;DHT22;7534;50.762;7.000;2022-09-30T15:28:58;20.10;54.20
14884;DHT22;7534;50.762;7.000;2022-09-30T15:31:28;20.00;56.60
14884;DHT22;7534;50.762;7.000;2022-09-30T15:34:20;20.00;57.50
14884;DHT22;7534;50.762;7.000;2022-09-30T15:36:55;19.90;58.50
14884;DHT22;7534;50.762;7.000;2022-09-30T15:39:36;19.70;59.30
14884;DHT22;7534;50.762;7.000;2022-09-30T15:45:26;19.50;58.80
14884;DHT22;7534;50.762;7.000;2022-09-30T15:51:28;19.50;60.00
14884;DHT22;7534;50.762;7.000;2022-09-30T16:10:39;18.90;63.30
14884;DHT22;7534;50.762;7.000;2022-09-30T16:13:05;18.80;63.40
14884;DHT22;7534;50.762;7.000;2022-09-30T16:15:36;18.80;64.30
14884;DHT22;7534;50.762;7.000;2022-09-30T16:18:04;18.70;63.90
14884;DHT22;7534;50.762;7.000;2022-09-30T16:20:30;18.60;64.10
14884;DHT22;7534;50.762;7.000;2022-09-30T16:22:56;18.60;65.50
14884;DHT22;7534;50.762;7.000;2022-09-30T16:25:24;18.50;66.20
14884;DHT22;7534;50.762;7.000;2022-09-30T16:27:58;18.50;67.00
14884;DHT22;7534;50.762;7.000;2022-09-30T16:30:27;18.40;68.80
14884;DHT22;7534;50.762;7.000;2022-09-30T16:32:58;18.00;66.80
14884;DHT22;7534;50.762;7.000;2022-09-30T16:35:30;18.00;69.40
14884;DHT22;7534;50.762;7.000;2022-09-30T16:38:06;17.80;70.70
14884;DHT22;7534;50.762;7.000;2022-09-30T16:40:33;17.70;72.60
14884;DHT22;7534;50.762;7.000;2022-09-30T16:43:02;17.50;73.50
14884;DHT22;7534;50.762;7.000;2022-09-30T16:45:29;17.30;75.90
14884;DHT22;7534;50.762;7.000;2022-09-30T16:47:56;17.10;76.50
14884;DHT22;7534;50.762;7.000;2022-09-30T16:50:39;16.90;78.70
14884;DHT22;7534;50.762;7.000;2022-09-30T16:53:11;16.60;80.60
14884;DHT22;7534;50.762;7.000;2022-09-30T16:55:36;16.40;82.20
14884;DHT22;7534;50.762;7.000;2022-09-30T16:58:03;16.10;83.80
14884;DHT22;7534;50.762;7.000;2022-09-30T17:00:31;15.90;86.10
14884;DHT22;7534;50.762;7.000;2022-09-30T17:02:57;15.60;87.80
14884;DHT22;7534;50.762;7.000;2022-09-30T17:05:24;15.40;88.60
14884;DHT22;7534;50.762;7.000;2022-09-30T17:08:00;15.20;89.30
14884;DHT22;7534;50.762;7.000;2022-09-30T17:10:31;15.00;90.00
14884;DHT22;7534;50.762;7.000;2022-09-30T17:12:59;14.80;90.00
14884;DHT22;7534;50.762;7.000;2022-09-30T17:15:29;14.70;90.40
14884;DHT22;7534;50.762;7.000;2022-09-30T17:17:57;14.40;90.20
14884;DHT22;7534;50.762;7.000;2022-09-30T17:20:24;14.30;90.10
14884;DHT22;7534;50.762;7.000;2022-09-30T17:22:51;14.30;90.40
14884;DHT22;7534;50.762;7.000;2022-09-30T17:25:17;14.10;90.40
14884;DHT22;7534;50.762;7.000;2022-09-30T17:27:46;14.00;90.60
14884;DHT22;7534;50.762;7.000;2022-09-30T17:30:15;14.00;90.50
14884;DHT22;7534;50.762;7.000;2022-09-30T17:32:43;14.00;90.20
14884;DHT22;7534;50.762;7.000;2022-09-30T17:35:10;14.00;90.10
14884;DHT22;7534;50.762;7.000;2022-09-30T17:37:36;14.00;90.50
14884;DHT22;7534;50.762;7.000;2022-09-30T17:40:04;14.00;91.00
14884;DHT22;7534;50.762;7.000;2022-09-30T17:42:51;13.90;91.30
14884;DHT22;7534;50.762;7.000;2022-09-30T17:45:38;13.80;91.70
14884;DHT22;7534;50.762;7.000;2022-09-30T17:48:06;13.70;91.50
14884;DHT22;7534;50.762;7.000;2022-09-30T17:50:38;13.70;91.60
14884;DHT22;7534;50.762;7.000;2022-09-30T17:53:06;13.80;91.90
14884;DHT22;7534;50.762;7.000;2022-09-30T17:55:33;13.70;91.90
14884;DHT22;7534;50.762;7.000;2022-09-30T17:58:00;13.70;92.10
14884;DHT22;7534;50.762;7.000;2022-09-30T18:00:30;13.60;92.00
14884;DHT22;7534;50.762;7.000;2022-09-30T18:02:56;13.60;92.30
14884;DHT22;7534;50.762;7.000;2022-09-30T18:05:22;13.50;92.30
14884;DHT22;7534;50.762;7.000;2022-09-30T18:07:51;13.50;92.80
14884;DHT22;7534;50.762;7.000;2022-09-30T18:10:17;13.40;92.80
14884;DHT22;7534;50.762;7.000;2022-09-30T18:12:43;13.40;92.70
14884;DHT22;7534;50.762;7.000;2022-09-30T18:15:13;13.40;92.80
14884;DHT22;7534;50.762;7.000;2022-09-30T18:17:41;13.40;92.80
14884;DHT22;7534;50.762;7.000;2022-09-30T18:20:07;13.30;92.80
14884;DHT22;7534;50.762;7.000;2022-09-30T18:22:33;13.40;93.00
14884;DHT22;7534;50.762;7.000;2022-09-30T18:24:58;13.30;93.00
14884;DHT22;7534;50.762;7.000;2022-09-30T18:27:43;13.30;93.10
14884;DHT22;7534;50.762;7.000;2022-09-30T18:30:10;13.30;93.10
14884;DHT22;7534;50.762;7.000;2022-09-30T18:32:37;13.20;93.00
14884;DHT22;7534;50.762;7.000;2022-09-30T18:35:04;13.30;93.00
14884;DHT22;7534;50.762;7.000;2022-09-30T18:37:34;13.10;93.20
14884;DHT22;7534;50.762;7.000;2022-09-30T18:40:04;13.00;93.40
14884;DHT22;7534;50.762;7.000;2022-09-30T18:42:32;13.00;93.70
14884;DHT22;7534;50.762;7.000;2022-09-30T18:44:57;13.00;93.60
14884;DHT22;7534;50.762;7.000;2022-09-30T18:47:23;12.90;93.70
14884;DHT22;7534;50.762;7.000;2022-09-30T18:49:50;12.90;93.70
14884;DHT22;7534;50.762;7.000;2022-09-30T18:52:16;12.90;93.90
14884;DHT22;7534;50.762;7.000;2022-09-30T18:54:42;12.80;93.90
14884;DHT22;7534;50.762;7.000;2022-09-30T18:57:07;12.70;94.00
14884;DHT22;7534;50.762;7.000;2022-09-30T18:59:33;12.70;94.10
14884;DHT22;7534;50.762;7.000;2022-09-30T19:01:59;12.60;94.00
14884;DHT22;7534;50.762;7.000;2022-09-30T19:04:27;12.80;93.80
14884;DHT22;7534;50.762;7.000;2022-09-30T19:06:53;12.80;94.00
14884;DHT22;7534;50.762;7.000;2022-09-30T19:09:20;12.70;94.20
14884;DHT22;7534;50.762;7.000;2022-09-30T19:11:45;12.70;94.30
14884;DHT22;7534;50.762;7.000;2022-09-30T19:14:13;12.70;94.20
14884;DHT22;7534;50.762;7.000;2022-09-30T19:16:39;12.70;94.00
14884;DHT22;7534;50.762;7.000;2022-09-30T19:19:07;12.70;94.20
14884;DHT22;7534;50.762;7.000;2022-09-30T19:21:39;12.70;94.10
14884;DHT22;7534;50.762;7.000;2022-09-30T19:24:07;12.60;94.20
14884;DHT22;7534;50.762;7.000;2022-09-30T19:26:35;12.50;94.40
14884;DHT22;7534;50.762;7.000;2022-09-30T19:29:04;12.50;94.30
14884;DHT22;7534;50.762;7.000;2022-09-30T19:31:30;12.40;94.20
14884;DHT22;7534;50.762;7.000;2022-09-30T19:33:57;12.40;94.20
14884;DHT22;7534;50.762;7.000;2022-09-30T19:36:23;12.40;94.20
14884;DHT22;7534;50.762;7.000;2022-09-30T19:38:51;12.40;93.90
14884;DHT22;7534;50.762;7.000;2022-09-30T19:41:17;12.40;94.10
14884;DHT22;7534;50.762;7.000;2022-09-30T19:43:48;12.40;94.00
14884;DHT22;7534;50.762;7.000;2022-09-30T19:46:14;12.50;94.20
14884;DHT22;7534;50.762;7.000;2022-09-30T19:48:40;12.50;94.30
14884;DHT22;7534;50.762;7.000;2022-09-30T19:51:07;12.30;94.40
14884;DHT22;7534;50.762;7.000;2022-09-30T19:53:37;12.40;94.50
14884;DHT22;7534;50.762;7.000;2022-09-30T19:56:16;12.30;94.70
14884;DHT22;7534;50.762;7.000;2022-09-30T19:58:49;12.20;95.00
14884;DHT22;7534;50.762;7.000;2022-09-30T20:01:23;12.20;95.20
14884;DHT22;7534;50.762;7.000;2022-09-30T20:03:53;12.20;95.50
14884;DHT22;7534;50.762;7.000;2022-09-30T20:06:21;12.20;95.60
14884;DHT22;7534;50.762;7.000;2022-09-30T20:08:52;12.20;95.60
14884;DHT22;7534;50.762;7.000;2022-09-30T20:11:23;12.10;95.90
14884;DHT22;7534;50.762;7.000;2022-09-30T20:13:51;12.10;96.00
14884;DHT22;7534;50.762;7.000;2022-09-30T20:16:39;12.00;96.20
14884;DHT22;7534;50.762;7.000;2022-09-30T20:19:07;12.00;96.30
14884;DHT22;7534;50.762;7.000;2022-09-30T20:21:33;11.90;96.50
14884;DHT22;7534;50.762;7.000;2022-09-30T20:23:59;11.80;96.80
14884;DHT22;7534;50.762;7.000;2022-09-30T20:26:27;11.90;96.90
14884;DHT22;7534;50.762;7.000;2022-09-30T20:28:56;11.90;97.00
14884;DHT22;7534;50.762;7.000;2022-09-30T20:31:23;11.80;97.00
14884;DHT22;7534;50.762;7.000;2022-09-30T20:33:56;11.80;97.20
14884;DHT22;7534;50.762;7.000;2022-09-30T20:36:27;11.80;97.30
14884;DHT22;7534;50.762;7.000;2022-09-30T20:38:55;11.80;97.40
14884;DHT22;7534;50.762;7.000;2022-09-30T20:41:29;11.80;97.50
14884;DHT22;7534;50.762;7.000;2022-09-30T20:43:59;11.90;97.50
14884;DHT22;7534;50.762;7.000;2022-09-30T20:46:27;11.80;97.50
14884;DHT22;7534;50.762;7.000;2022-09-30T20:48:57;11.80;97.50
14884;DHT22;7534;50.762;7.000;2022-09-30T20:51:27;11.80;97.60
14884;DHT22;7534;50.762;7.000;2022-09-30T20:53:54;11.80;97.70
14884;DHT22;7534;50.762;7.000;2022-09-30T20:56:22;11.80;97.80
14884;DHT22;7534;50.762;7.000;2022-09-30T20:58:50;11.80;97.80
14884;DHT22;7534;50.762;7.000;2022-09-30T21:01:20;11.90;97.60
14884;DHT22;7534;50.762;7.000;2022-09-30T21:03:50;11.90;97.60
14884;DHT22;7534;50.762;7.000;2022-09-30T21:06:25;11.80;97.70
14884;DHT22;7534;50.762;7.000;2022-09-30T21:08:53;11.90;97.60
14884;DHT22;7534;50.762;7.000;2022-09-30T21:11:22;12.00;98.00
14884;DHT22;7534;50.762;7.000;2022-09-30T21:13:50;11.90;97.60
14884;DHT22;7534;50.762;7.000;2022-09-30T21:16:19;11.90;97.80
14884;DHT22;7534;50.762;7.000;2022-09-30T21:18:49;12.00;97.60
14884;DHT22;7534;50.762;7.000;2022-09-30T21:21:18;12.00;97.70
14884;DHT22;7534;50.762;7.000;2022-09-30T21:23:45;12.00;97.70
14884;DHT22;7534;50.762;7.000;2022-09-30T21:26:13;12.00;97.60
14884;DHT22;7534;50.762;7.000;2022-09-30T21:28:41;12.00;97.60
14884;DHT22;7534;50.762;7.000;2022-09-30T21:31:16;12.00;97.60
14884;DHT22;7534;50.762;7.000;2022-09-30T21:33:51;12.00;97.80
14884;DHT22;7534;50.762;7.000;2022-09-30T21:36:19;12.00;97.70
14884;DHT22;7534;50.762;7.000;2022-09-30T21:38:45;12.00;97.70
14884;DHT22;7534;50.762;7.000;2022-09-30T21:41:11;12.00;97.60
14884;DHT22;7534;50.762;7.000;2022-09-30T21:43:37;12.00;97.60
14884;DHT22;7534;50.762;7.000;2022-09-30T21:46:08;12.10;97.60
14884;DHT22;7534;50.762;7.000;2022-09-30T21:48:36;12.10;97.60
14884;DHT22;7534;50.762;7.000;2022-09-30T21:51:04;12.00;97.50
14884;DHT22;7534;50.762;7.000;2022-09-30T21:53:32;12.10;97.70
14884;DHT22;7534;50.762;7.000;2022-09-30T21:56:01;12.20;97.50
14884;DHT22;7534;50.762;7.000;2022-09-30T21:58:29;12.30;97.40
14884;DHT22;7534;50.762;7.000;2022-09-30T22:00:59;12.30;97.40
14884;DHT22;7534;50.762;7.000;2022-09-30T22:03:31;12.30;97.40
14884;DHT22;7534;50.762;7.000;2022-09-30T22:06:03;12.40;97.30
14884;DHT22;7534;50.762;7.000;2022-09-30T22:08:31;12.40;97.30
14884;DHT22;7534;50.762;7.000;2022-09-30T22:11:01;12.40;97.40
14884;DHT22;7534;50.762;7.000;2022-09-30T22:13:28;12.30;97.40
14884;DHT22;7534;50.762;7.000;2022-09-30T22:16:08;12.40;97.40
14884;DHT22;7534;50.762;7.000;2022-09-30T22:18:35;12.20;97.60
14884;DHT22;7534;50.762;7.000;2022-09-30T22:21:03;12.30;97.80
14884;DHT22;7534;50.762;7.000;2022-09-30T22:23:33;12.30;97.70
14884;DHT22;7534;50.762;7.000;2022-09-30T22:26:20;12.30;97.60
14884;DHT22;7534;50.762;7.000;2022-09-30T22:28:57;12.40;97.70
14884;DHT22;7534;50.762;7.000;2022-09-30T22:31:29;12.30;97.80
14884;DHT22;7534;50.762;7.000;2022-09-30T22:33:58;12.30;97.80
14884;DHT22;7534;50.762;7.000;2022-09-30T22:36:51;12.30;97.90
14884;DHT22;7534;50.762;7.000;2022-09-30T22:39:39;12.20;98.00
14884;DHT22;7534;50.762;7.000;2022-09-30T22:42:05;12.20;98.30
14884;DHT22;7534;50.762;7.000;2022-09-30T22:44:33;12.10;98.40
14884;DHT22;7534;50.762;7.000;2022-09-30T22:47:00;12.20;98.40
14884;DHT22;7534;50.762;7.000;2022-09-30T22:49:28;12.10;98.40
14884;DHT22;7534;50.762;7.000;2022-09-30T22:51:58;12.20;98.50
14884;DHT22;7534;50.762;7.000;2022-09-30T22:54:25;12.20;98.40
14884;DHT22;7534;50.762;7.000;2022-09-30T22:56:53;12.10;98.60
14884;DHT22;7534;50.762;7.000;2022-09-30T22:59:20;12.20;98.80
14884;DHT22;7534;50.762;7.000;2022-09-30T23:01:53;12.20;98.70
14884;DHT22;7534;50.762;7.000;2022-09-30T23:04:26;12.30;98.70
14884;DHT22;7534;50.762;7.000;2022-09-30T23:06:55;12.20;98.80
14884;DHT22;7534;50.762;7.000;2022-09-30T23:09:31;12.30;98.80
14884;DHT22;7534;50.762;7.000;2022-09-30T23:12:01;12.30;98.80
14884;DHT22;7534;50.762;7.000;2022-09-30T23:14:31;12.30;98.90
14884;DHT22;7534;50.762;7.000;2022-09-30T23:17:02;12.30;99.00
14884;DHT22;7534;50.762;7.000;2022-09-30T23:19:30;12.20;99.20
14884;DHT22;7534;50.762;7.000;2022-09-30T23:22:00;12.20;99.20
14884;DHT22;7534;50.762;7.000;2022-09-30T23:24:40;12.20;99.50
14884;DHT22;7534;50.762;7.000;2022-09-30T23:27:15;12.20;99.70
14884;DHT22;7534;50.762;7.000;2022-09-30T23:29:47;12.20;99.80
14884;DHT22;7534;50.762;7.000;2022-09-30T23:32:16;12.20;99.80
14884;DHT22;7534;50.762;7.000;2022-09-30T23:34:44;12.20;99.80
14884;DHT22;7534;50.762;7.000;2022-09-30T23:37:10;12.20;99.90
14884;DHT22;7534;50.762;7.000;2022-09-30T23:39:38;12.20;99.80
14884;DHT22;7534;50.762;7.000;2022-09-30T23:42:05;12.20;99.80
14884;DHT22;7534;50.762;7.000;2022-09-30T23:44:30;12.30;99.50
14884;DHT22;7534;50.762;7.000;2022-09-30T23:46:58;12.30;99.40